createdAt,value
2023-08-21T00:01:36.098Z,79.98
2023-08-21T00:04:04.744Z,80.05
2023-08-21T00:06:33.138Z,80.15
2023-08-21T00:09:03.266Z,80.10
2023-08-21T00:11:31.090Z,80.13
2023-08-21T00:13:58.906Z,80.05
2023-08-21T00:16:27.850Z,80.21
2023-08-21T00:18:55.897Z,80.33
2023-08-21T00:21:23.737Z,80.39
2023-08-21T00:23:51.489Z,80.56
2023-08-21T00:26:19.308Z,80.61
2023-08-21T00:28:47.146Z,80.89
2023-08-21T00:31:15.032Z,81.08
2023-08-21T00:33:42.859Z,81.17
2023-08-21T00:36:10.644Z,81.19
2023-08-21T00:38:38.516Z,81.18
2023-08-21T00:41:06.274Z,81.30
2023-08-21T00:43:34.208Z,81.43
2023-08-21T00:46:02.688Z,81.50
2023-08-21T00:48:31.375Z,81.42
2023-08-21T00:50:59.546Z,81.33
2023-08-21T00:53:27.384Z,81.36
2023-08-21T00:55:55.381Z,81.32
2023-08-21T00:58:23.235Z,81.36
2023-08-21T01:00:53.907Z,81.45
2023-08-21T01:03:22.071Z,81.51
2023-08-21T01:05:50.057Z,81.55
2023-08-21T01:08:26.012Z,81.78
2023-08-21T01:11:07.389Z,81.88
2023-08-21T01:13:53.115Z,81.94
2023-08-21T01:16:22.386Z,82.10
2023-08-21T01:18:51.520Z,82.37
2023-08-21T01:21:19.926Z,82.36
2023-08-21T01:23:47.933Z,82.44
2023-08-21T01:26:15.784Z,82.66
2023-08-21T01:28:43.822Z,82.83
2023-08-21T01:31:32.373Z,82.80
2023-08-21T01:34:07.420Z,82.77
2023-08-21T01:36:36.403Z,82.92
2023-08-21T01:39:04.754Z,82.95
2023-08-21T01:41:32.616Z,82.95
2023-08-21T01:44:00.345Z,82.71
2023-08-21T01:46:28.308Z,82.71
2023-08-21T01:48:56.283Z,82.62
2023-08-21T01:51:24.072Z,82.37
2023-08-21T01:53:51.995Z,82.31
2023-08-21T01:56:19.724Z,82.45
2023-08-21T01:58:47.517Z,82.50
2023-08-21T02:01:15.540Z,82.84
2023-08-21T02:03:43.566Z,82.72
2023-08-21T02:06:11.578Z,82.69
2023-08-21T02:08:41.130Z,82.97
2023-08-21T02:11:08.967Z,83.07
2023-08-21T02:13:36.947Z,83.10
2023-08-21T02:16:04.943Z,83.08
2023-08-21T02:18:32.776Z,83.15
2023-08-21T02:21:03.944Z,83.38
2023-08-21T02:23:31.774Z,83.34
2023-08-21T02:25:59.630Z,83.45
2023-08-21T02:28:27.412Z,83.63
2023-08-21T02:30:55.271Z,83.71
2023-08-21T02:33:23.132Z,83.89
2023-08-21T02:35:51.003Z,83.86
2023-08-21T02:38:18.793Z,83.70
2023-08-21T02:40:46.612Z,83.69
2023-08-21T02:43:14.480Z,83.85
2023-08-21T02:45:42.242Z,83.68
2023-08-21T02:48:10.947Z,83.76
2023-08-21T02:50:38.995Z,83.80
2023-08-21T02:53:06.784Z,83.91
2023-08-21T02:55:35.030Z,83.86
2023-08-21T02:58:02.922Z,83.96
2023-08-21T03:00:30.792Z,83.84
2023-08-21T03:02:58.666Z,83.85
2023-08-21T03:05:27.504Z,83.92
2023-08-21T03:07:55.301Z,84.12
2023-08-21T03:10:24.704Z,84.19
2023-08-21T03:12:52.455Z,84.16
2023-08-21T03:15:20.938Z,84.21
2023-08-21T03:17:48.767Z,84.04
2023-08-21T03:20:18.657Z,84.06
2023-08-21T03:22:47.485Z,84.05
2023-08-21T03:25:15.864Z,84.06
2023-08-21T03:27:45.505Z,84.23
2023-08-21T03:30:16.022Z,84.08
2023-08-21T03:32:44.115Z,83.83
2023-08-21T03:35:12.486Z,83.63
2023-08-21T03:37:40.292Z,83.81
2023-08-21T03:40:09.747Z,83.88
2023-08-21T03:42:37.850Z,83.90
2023-08-21T03:45:06.904Z,83.86
2023-08-21T03:47:34.811Z,84.10
2023-08-21T03:50:06.857Z,83.98
2023-08-21T03:52:34.727Z,84.04
2023-08-21T03:55:02.513Z,83.94
2023-08-21T03:57:30.234Z,84.14
2023-08-21T03:59:58.019Z,84.00
2023-08-21T04:02:26.817Z,84.14
2023-08-21T04:04:54.876Z,84.04
2023-08-21T04:07:22.628Z,84.07
2023-08-21T04:09:50.474Z,84.09
2023-08-21T04:12:18.358Z,84.02
2023-08-21T04:14:46.111Z,83.87
2023-08-21T04:17:13.916Z,83.82
2023-08-21T04:19:42.102Z,83.89
2023-08-21T04:22:09.927Z,83.89
2023-08-21T04:24:37.681Z,84.03
2023-08-21T04:27:05.580Z,83.88
2023-08-21T04:29:33.489Z,83.76
2023-08-21T04:32:01.341Z,83.58
2023-08-21T04:34:29.122Z,83.83
2023-08-21T04:36:56.849Z,83.92
2023-08-21T04:39:24.758Z,83.97
2023-08-21T04:41:52.665Z,84.01
2023-08-21T04:44:20.586Z,83.83
2023-08-21T04:46:51.501Z,83.82
2023-08-21T04:49:19.513Z,83.78
2023-08-21T04:51:47.272Z,83.72
2023-08-21T04:54:15.101Z,83.63
2023-08-21T04:56:42.964Z,83.71
2023-08-21T04:59:11.988Z,83.46
2023-08-21T05:01:40.010Z,83.50
2023-08-21T05:04:08.224Z,83.52
2023-08-21T05:06:36.333Z,83.50
2023-08-21T05:09:04.147Z,83.37
2023-08-21T05:11:32.056Z,83.35
2023-08-21T05:14:02.543Z,83.58
2023-08-21T05:16:30.739Z,83.29
2023-08-21T05:18:58.663Z,83.11
2023-08-21T05:21:26.405Z,83.14
2023-08-21T05:23:54.323Z,83.18
2023-08-21T05:26:22.202Z,83.47
2023-08-21T05:28:50.156Z,83.39
2023-08-21T05:31:18.226Z,83.13
2023-08-21T05:33:52.953Z,83.27
2023-08-21T05:36:20.853Z,83.36
2023-08-21T05:38:49.642Z,83.33
2023-08-21T05:41:17.678Z,83.26
2023-08-21T05:43:46.812Z,83.32
2023-08-21T05:46:14.796Z,83.40
2023-08-21T05:48:42.795Z,83.43
2023-08-21T05:51:10.595Z,83.51
2023-08-21T05:53:38.370Z,83.58
2023-08-21T05:56:06.166Z,83.37
2023-08-21T05:58:34.087Z,83.31
2023-08-21T06:01:03.475Z,83.26
2023-08-21T06:03:33.058Z,83.28
2023-08-21T06:06:36.425Z,83.17
2023-08-21T06:09:04.271Z,82.95
2023-08-21T06:11:32.028Z,82.95
2023-08-21T06:13:59.891Z,82.86
2023-08-21T06:16:27.824Z,82.93
2023-08-21T06:18:55.734Z,82.73
2023-08-21T06:21:23.569Z,82.78
2023-08-21T06:23:51.571Z,82.94
2023-08-21T06:26:19.404Z,83.05
2023-08-21T06:28:47.189Z,83.08
2023-08-21T06:31:16.276Z,82.93
2023-08-21T06:33:44.137Z,82.56
2023-08-21T06:36:12.542Z,82.48
2023-08-21T06:38:40.385Z,82.42
2023-08-21T06:41:12.375Z,82.39
2023-08-21T06:43:43.755Z,82.27
2023-08-21T06:46:14.736Z,82.06
2023-08-21T06:48:43.704Z,82.14
2023-08-21T06:51:14.745Z,81.74
2023-08-21T06:53:45.110Z,81.65
2023-08-21T06:56:12.866Z,81.48
2023-08-21T06:58:40.640Z,81.21
2023-08-21T07:01:08.406Z,80.88
2023-08-21T07:03:36.193Z,80.69
2023-08-21T07:06:04.101Z,80.34
2023-08-21T07:08:34.644Z,80.29
2023-08-21T07:11:05.550Z,80.11
2023-08-21T07:13:33.426Z,80.11
2023-08-21T07:16:05.459Z,79.59
2023-08-21T07:18:35.137Z,79.20
2023-08-21T07:21:12.391Z,79.07
2023-08-21T07:23:46.550Z,79.07
2023-08-21T07:26:14.354Z,78.99
2023-08-21T07:28:42.167Z,79.09
2023-08-21T07:31:10.409Z,79.04
2023-08-21T07:33:38.246Z,79.12
2023-08-21T07:36:07.189Z,78.74
2023-08-21T07:38:35.125Z,77.96
2023-08-21T07:41:10.995Z,78.10
2023-08-21T07:43:42.713Z,77.47
2023-08-21T07:46:16.921Z,77.80
2023-08-21T07:48:46.446Z,77.85
2023-08-21T07:51:14.342Z,77.33
2023-08-21T07:53:42.650Z,77.12
2023-08-21T07:56:10.386Z,76.79
2023-08-21T07:58:38.291Z,76.73
2023-08-21T08:01:06.340Z,76.67
2023-08-21T08:03:34.329Z,76.09
2023-08-21T08:06:02.257Z,75.46
2023-08-21T08:08:30.490Z,74.78
2023-08-21T08:11:04.608Z,74.04
2023-08-21T08:13:33.190Z,73.94
2023-08-21T08:16:01.827Z,73.81
2023-08-21T08:18:29.823Z,73.39
2023-08-21T08:20:57.763Z,72.57
2023-08-21T08:23:25.571Z,72.17
2023-08-21T08:25:54.191Z,72.09
2023-08-21T08:28:22.139Z,72.23
2023-08-21T08:30:50.072Z,72.37
2023-08-21T08:33:18.044Z,71.78
2023-08-21T08:35:45.842Z,71.54
2023-08-21T08:38:13.694Z,70.96
2023-08-21T08:40:47.620Z,70.53
2023-08-21T08:43:16.011Z,70.15
2023-08-21T08:45:49.277Z,69.63
2023-08-21T08:48:19.000Z,69.60
2023-08-21T08:50:48.717Z,69.59
2023-08-21T08:53:18.452Z,69.79
2023-08-21T08:55:46.848Z,69.11
2023-08-21T08:58:14.705Z,68.36
2023-08-21T09:00:42.615Z,68.29
2023-08-21T09:03:11.627Z,67.44
2023-08-21T09:05:41.909Z,67.31
2023-08-21T09:08:09.857Z,67.18
2023-08-21T09:10:40.071Z,66.72
2023-08-21T09:13:19.304Z,66.39
2023-08-21T09:15:55.298Z,67.03
2023-08-21T09:18:23.181Z,66.53
2023-08-21T09:20:51.139Z,67.24
2023-08-21T09:23:20.070Z,66.80
2023-08-21T09:25:49.788Z,66.99
2023-08-21T09:28:22.590Z,67.30
2023-08-21T09:30:54.380Z,67.53
2023-08-21T09:33:24.736Z,67.76
2023-08-21T09:35:54.465Z,67.66
2023-08-21T09:38:23.753Z,67.53
2023-08-21T09:40:56.505Z,67.50
2023-08-21T09:43:25.832Z,66.92
2023-08-21T09:45:58.533Z,67.35
2023-08-21T09:48:33.629Z,67.13
2023-08-21T09:51:05.157Z,67.07
2023-08-21T09:53:33.744Z,66.10
2023-08-21T09:56:04.318Z,66.11
2023-08-21T09:58:32.582Z,65.88
2023-08-21T10:01:01.235Z,66.28
2023-08-21T10:03:30.834Z,65.72
2023-08-21T10:06:00.060Z,65.74
2023-08-21T10:08:29.920Z,66.02
2023-08-21T10:11:02.379Z,65.84
2023-08-21T10:13:34.605Z,65.55
2023-08-21T10:16:03.131Z,64.96
2023-08-21T10:18:34.630Z,65.44
2023-08-21T10:21:26.249Z,65.35
2023-08-21T10:23:56.486Z,65.01
2023-08-21T10:26:33.449Z,64.82
2023-08-21T10:29:07.787Z,63.98
2023-08-21T10:31:41.358Z,63.77
2023-08-21T10:34:15.410Z,63.41
2023-08-21T10:36:46.296Z,63.33
2023-08-21T10:39:18.592Z,63.38
2023-08-21T10:42:14.947Z,63.02
2023-08-21T10:44:42.906Z,62.77
2023-08-21T10:47:45.632Z,62.83
2023-08-21T10:50:13.534Z,62.76
2023-08-21T10:52:45.972Z,62.82
2023-08-21T10:55:16.676Z,63.65
2023-08-21T10:57:44.480Z,63.67
2023-08-21T11:00:15.733Z,63.71
2023-08-21T11:02:49.016Z,63.75
2023-08-21T11:05:17.693Z,62.63
2023-08-21T11:07:49.381Z,62.92
2023-08-21T11:10:25.069Z,63.12
2023-08-21T11:12:56.785Z,62.60
2023-08-21T11:15:30.397Z,63.31
2023-08-21T11:18:02.001Z,63.22
2023-08-21T11:20:35.558Z,62.64
2023-08-21T11:23:08.337Z,62.80
2023-08-21T11:25:40.715Z,61.80
2023-08-21T11:28:09.213Z,62.20
2023-08-21T11:30:37.779Z,61.92
2023-08-21T11:33:08.919Z,60.95
2023-08-21T11:35:38.792Z,59.91
2023-08-21T11:38:10.200Z,60.09
2023-08-21T11:40:38.222Z,60.60
2023-08-21T11:43:10.287Z,60.17
2023-08-21T11:45:53.237Z,59.93
2023-08-21T11:48:26.156Z,60.22
2023-08-21T11:50:54.759Z,60.18
2023-08-21T11:53:37.411Z,59.22
2023-08-21T11:56:15.382Z,60.04
2023-08-21T11:58:50.139Z,59.56
2023-08-21T12:01:22.329Z,59.14
2023-08-21T12:03:56.863Z,59.78
2023-08-21T12:06:27.056Z,60.22
2023-08-21T12:08:55.313Z,59.81
2023-08-21T12:11:23.186Z,60.52
2023-08-21T12:13:53.037Z,60.89
2023-08-21T12:16:21.078Z,60.98
2023-08-21T12:18:48.971Z,61.03
2023-08-21T12:21:16.834Z,60.95
2023-08-21T12:23:44.533Z,61.11
2023-08-21T12:26:12.258Z,60.89
2023-08-21T12:28:39.994Z,61.52
2023-08-21T12:31:07.826Z,61.13
2023-08-21T12:33:35.733Z,60.33
2023-08-21T12:36:04.534Z,59.90
2023-08-21T12:38:33.608Z,59.77
2023-08-21T12:41:03.902Z,58.66
2023-08-21T12:43:32.365Z,58.82
2023-08-21T12:46:00.328Z,57.76
2023-08-21T12:48:28.166Z,58.40
2023-08-21T12:50:56.023Z,58.01
2023-08-21T12:53:23.821Z,57.91
2023-08-21T12:55:51.641Z,57.74
2023-08-21T12:58:20.042Z,57.67
2023-08-21T13:00:48.021Z,57.34
2023-08-21T13:03:16.333Z,57.54
2023-08-21T13:05:44.242Z,57.07
2023-08-21T13:08:12.002Z,54.61
2023-08-21T13:10:39.802Z,54.74
2023-08-21T13:13:07.695Z,54.69
2023-08-21T13:15:35.561Z,54.77
2023-08-21T13:18:03.784Z,55.66
2023-08-21T13:20:31.738Z,54.94
2023-08-21T13:22:59.528Z,55.32
2023-08-21T13:25:27.616Z,54.87
2023-08-21T13:27:56.088Z,53.28
2023-08-21T13:30:24.296Z,53.42
2023-08-21T13:32:52.105Z,53.85
2023-08-21T13:35:21.904Z,53.91
2023-08-21T13:37:51.114Z,54.26
2023-08-21T13:40:19.274Z,54.35
2023-08-21T13:42:49.358Z,53.61
2023-08-21T13:45:19.764Z,53.95
2023-08-21T13:47:50.157Z,53.85
2023-08-21T13:50:20.047Z,52.63
2023-08-21T13:52:48.914Z,52.69
2023-08-21T13:55:18.183Z,52.91
2023-08-21T13:57:47.072Z,53.39
2023-08-21T14:00:18.554Z,53.96
2023-08-21T14:02:46.858Z,53.33
2023-08-21T14:05:15.780Z,53.15
2023-08-21T14:07:43.601Z,52.42
2023-08-21T14:10:11.658Z,52.98
2023-08-21T14:12:42.205Z,53.00
2023-08-21T14:15:11.809Z,53.06
2023-08-21T14:17:40.670Z,53.53
2023-08-21T14:20:09.497Z,53.38
2023-08-21T14:22:38.365Z,52.91
2023-08-21T14:25:09.576Z,52.79
2023-08-21T14:27:37.768Z,53.63
2023-08-21T14:30:07.526Z,53.86
2023-08-21T14:32:38.171Z,53.30
2023-08-21T14:35:10.635Z,53.16
2023-08-21T14:37:40.228Z,53.37
2023-08-21T14:40:09.363Z,53.71
2023-08-21T14:42:39.506Z,53.32
2023-08-21T14:45:08.507Z,54.54
2023-08-21T14:47:38.603Z,54.79
2023-08-21T14:50:07.437Z,54.76
2023-08-21T14:52:35.296Z,54.71
2023-08-21T14:55:03.366Z,54.75
2023-08-21T14:57:31.165Z,54.32
2023-08-21T14:59:58.919Z,53.34
2023-08-21T15:02:26.781Z,52.12
2023-08-21T15:04:54.893Z,52.23
2023-08-21T15:07:22.722Z,52.50
2023-08-21T15:09:50.494Z,52.61
2023-08-21T15:12:18.307Z,52.71
2023-08-21T15:14:46.802Z,52.36
2023-08-21T15:17:19.465Z,52.34
2023-08-21T15:19:50.388Z,53.18
2023-08-21T15:22:19.003Z,52.12
2023-08-21T15:24:46.861Z,51.79
2023-08-21T15:27:15.196Z,52.69
2023-08-21T15:29:42.934Z,53.34
2023-08-21T15:32:10.869Z,53.50
2023-08-21T15:34:38.698Z,53.83
2023-08-21T15:37:06.500Z,54.12
2023-08-21T15:39:34.235Z,53.14
2023-08-21T15:42:02.049Z,53.72
2023-08-21T15:44:29.795Z,53.56
2023-08-21T15:47:13.316Z,53.71
2023-08-21T15:49:45.260Z,53.83
2023-08-21T15:52:13.083Z,52.53
2023-08-21T15:54:41.604Z,52.23
2023-08-21T15:57:09.575Z,52.77
2023-08-21T15:59:39.631Z,51.76
2023-08-21T16:02:07.396Z,51.38
2023-08-21T16:04:35.202Z,51.92
2023-08-21T16:07:03.097Z,52.24
2023-08-21T16:09:31.160Z,51.94
2023-08-21T16:11:58.897Z,52.29
2023-08-21T16:14:26.664Z,52.73
2023-08-21T16:16:55.900Z,52.60
2023-08-21T16:19:26.584Z,53.30
2023-08-21T16:21:54.367Z,53.49
2023-08-21T16:24:22.220Z,53.46
2023-08-21T16:26:50.535Z,53.83
2023-08-21T16:29:19.566Z,53.90
2023-08-21T16:31:48.693Z,53.62
2023-08-21T16:34:16.888Z,53.54
2023-08-21T16:36:44.634Z,53.96
2023-08-21T16:39:12.472Z,53.60
2023-08-21T16:41:40.417Z,53.12
2023-08-21T16:44:08.575Z,53.26
2023-08-21T16:46:37.003Z,53.52
2023-08-21T16:49:05.628Z,53.71
2023-08-21T16:51:33.448Z,53.62
2023-08-21T16:54:01.238Z,54.32
2023-08-21T16:56:28.996Z,55.29
2023-08-21T16:58:56.774Z,55.55
2023-08-21T17:01:24.647Z,54.87
2023-08-21T17:03:52.652Z,54.36
2023-08-21T17:06:20.565Z,54.69
2023-08-21T17:08:48.295Z,54.86
2023-08-21T17:11:16.068Z,55.26
2023-08-21T17:13:45.835Z,55.77
2023-08-21T17:16:14.445Z,55.36
2023-08-21T17:18:42.377Z,55.49
2023-08-21T17:21:10.472Z,55.29
2023-08-21T17:23:38.181Z,55.65
2023-08-21T17:26:06.115Z,55.98
2023-08-21T17:28:33.902Z,56.70
2023-08-21T17:31:01.664Z,56.63
2023-08-21T17:33:29.665Z,56.90
2023-08-21T17:35:57.538Z,57.40
2023-08-21T17:38:25.308Z,57.89
2023-08-21T17:40:53.048Z,58.13
2023-08-21T17:43:20.801Z,58.14
2023-08-21T17:45:48.771Z,58.45
2023-08-21T17:48:16.693Z,58.43
2023-08-21T17:50:45.300Z,58.52
2023-08-21T17:53:13.047Z,58.51
2023-08-21T17:55:40.933Z,58.63
2023-08-21T17:58:08.696Z,58.53
2023-08-21T18:00:36.849Z,58.82
2023-08-21T18:03:05.488Z,58.49
2023-08-21T18:05:33.386Z,59.07
2023-08-21T18:08:01.374Z,59.41
2023-08-21T18:10:29.355Z,59.48
2023-08-21T18:12:57.136Z,59.94
2023-08-21T18:15:24.973Z,60.40
2023-08-21T18:17:53.180Z,60.45
2023-08-21T18:21:02.893Z,60.87
2023-08-21T18:23:32.146Z,61.04
2023-08-21T18:26:00.277Z,61.12
2023-08-21T18:28:28.162Z,61.52
2023-08-21T18:31:01.933Z,61.62
2023-08-21T18:33:30.155Z,61.88
2023-08-21T18:36:00.249Z,62.40
2023-08-21T18:38:28.948Z,62.54
2023-08-21T18:40:58.690Z,62.34
2023-08-21T18:43:26.554Z,62.61
2023-08-21T18:45:57.364Z,62.85
2023-08-21T18:48:25.393Z,62.82
2023-08-21T18:50:54.596Z,62.91
2023-08-21T18:53:23.517Z,63.19
2023-08-21T18:55:51.316Z,63.38
2023-08-21T18:58:19.136Z,63.50
2023-08-21T19:00:47.123Z,63.52
2023-08-21T19:03:15.603Z,63.61
2023-08-21T19:05:43.528Z,63.70
2023-08-21T19:08:11.371Z,63.90
2023-08-21T19:10:39.181Z,64.01
2023-08-21T19:13:08.336Z,64.12
2023-08-21T19:15:36.519Z,64.26
2023-08-21T19:18:05.371Z,64.61
2023-08-21T19:20:33.469Z,64.73
2023-08-21T19:23:01.686Z,64.92
2023-08-21T19:25:29.991Z,65.06
2023-08-21T19:27:59.399Z,65.38
2023-08-21T19:30:27.171Z,65.67
2023-08-21T19:32:56.426Z,65.97
2023-08-21T19:35:24.611Z,66.38
2023-08-21T19:37:52.731Z,66.50
2023-08-21T19:40:21.338Z,66.88
2023-08-21T19:42:49.099Z,67.25
2023-08-21T19:45:20.501Z,67.22
2023-08-21T19:47:48.503Z,67.32
2023-08-21T19:50:16.798Z,67.58
2023-08-21T19:52:45.867Z,67.90
2023-08-21T19:55:14.596Z,68.02
2023-08-21T19:57:42.753Z,68.25
2023-08-21T20:00:11.670Z,68.48
2023-08-21T20:02:40.851Z,68.56
2023-08-21T20:05:09.988Z,68.89
2023-08-21T20:07:38.383Z,69.00
2023-08-21T20:10:07.359Z,69.27
2023-08-21T20:12:36.073Z,69.38
2023-08-21T20:15:06.181Z,69.42
2023-08-21T20:17:34.258Z,69.64
2023-08-21T20:20:02.077Z,69.98
2023-08-21T20:22:29.890Z,70.15
2023-08-21T20:24:58.206Z,70.44
2023-08-21T20:27:26.155Z,70.64
2023-08-21T20:29:53.956Z,70.78
2023-08-21T20:32:21.903Z,70.90
2023-08-21T20:34:50.868Z,70.80
2023-08-21T20:37:18.810Z,71.12
2023-08-21T20:39:46.865Z,71.42
2023-08-21T20:42:14.758Z,71.79
2023-08-21T20:44:42.954Z,72.08
2023-08-21T20:47:10.755Z,72.02
2023-08-21T20:49:39.680Z,71.97
2023-08-21T20:52:07.702Z,72.18
2023-08-21T20:54:35.488Z,72.16
2023-08-21T20:57:03.426Z,72.41
2023-08-21T20:59:31.254Z,72.40
2023-08-21T21:01:59.024Z,72.48
2023-08-21T21:04:26.915Z,72.63
2023-08-21T21:06:54.759Z,72.61
2023-08-21T21:09:22.693Z,72.73
2023-08-21T21:11:50.484Z,72.85
2023-08-21T21:14:18.523Z,72.82
2023-08-21T21:16:46.510Z,72.92
2023-08-21T21:19:14.494Z,73.23
2023-08-21T21:21:42.376Z,73.45
2023-08-21T21:24:10.264Z,73.60
2023-08-21T21:26:40.725Z,73.49
2023-08-21T21:29:09.852Z,73.60
2023-08-21T21:31:37.722Z,73.60
2023-08-21T21:34:05.487Z,73.76
2023-08-21T21:36:33.247Z,73.84
2023-08-21T21:39:01.062Z,73.97
2023-08-21T21:41:28.896Z,73.98
2023-08-21T21:43:56.775Z,74.12
2023-08-21T21:46:27.098Z,73.94
2023-08-21T21:48:55.253Z,74.11
2023-08-21T21:51:23.321Z,74.28
2023-08-21T21:53:51.763Z,74.30
2023-08-21T21:56:19.816Z,74.51
2023-08-21T21:58:47.920Z,74.48
2023-08-21T22:01:18.519Z,74.71
2023-08-21T22:03:46.574Z,74.79
2023-08-21T22:06:14.703Z,74.86
2023-08-21T22:08:43.418Z,75.08
2023-08-21T22:11:11.470Z,75.24
2023-08-21T22:13:40.145Z,75.42
2023-08-21T22:16:08.549Z,75.57
2023-08-21T22:18:38.069Z,75.62
2023-08-21T22:21:08.561Z,75.64
2023-08-21T22:23:37.240Z,75.84
2023-08-21T22:26:05.127Z,76.02
2023-08-21T22:28:32.989Z,75.97
2023-08-21T22:31:00.796Z,76.13
2023-08-21T22:33:28.694Z,76.31
2023-08-21T22:35:56.629Z,76.58
2023-08-21T22:38:24.503Z,76.63
2023-08-21T22:40:52.265Z,76.76
2023-08-21T22:43:20.118Z,76.96
2023-08-21T22:45:47.983Z,76.96
2023-08-21T22:48:15.946Z,76.97
2023-08-21T22:50:43.853Z,77.16
2023-08-21T22:53:11.572Z,77.33
2023-08-21T22:55:39.580Z,77.58
2023-08-21T22:58:07.809Z,77.58
2023-08-21T23:00:35.650Z,77.59
2023-08-21T23:03:04.052Z,77.81
2023-08-21T23:05:31.942Z,77.78
2023-08-21T23:07:59.835Z,77.56
2023-08-21T23:10:27.761Z,77.87
2023-08-21T23:12:55.582Z,77.96
2023-08-21T23:15:23.530Z,78.12
2023-08-21T23:17:51.354Z,78.01
2023-08-21T23:20:19.362Z,78.06
2023-08-21T23:22:47.253Z,78.28
2023-08-21T23:25:15.556Z,78.45
2023-08-21T23:27:43.378Z,78.46
2023-08-21T23:30:12.225Z,78.64
2023-08-21T23:32:40.174Z,78.69
2023-08-21T23:35:08.631Z,78.77
2023-08-21T23:37:37.104Z,78.89
2023-08-21T23:40:10.353Z,78.87
2023-08-21T23:42:38.247Z,78.90
2023-08-21T23:45:06.992Z,78.85
2023-08-21T23:47:34.783Z,78.97
2023-08-21T23:50:06.046Z,79.06
2023-08-21T23:52:33.896Z,79.19
2023-08-21T23:55:03.228Z,79.30
2023-08-21T23:57:31.382Z,79.41
2023-08-21T23:59:59.360Z,79.68
